Time;durP1;ratioP1;P1;durP2;ratioP2;P2;SDS_P1;SDS_P2;PMS_P1;PMS_P2;Temp;Humidity;BMP_temperature;BMP_pressure;BME280_temperature;BME280_humidity;BME280_pressure;Samples;Min_cycle;Max_cycle;Signal;HPM_P1;HPM_P2
2023/07/28 00:01:27;;;;;;;3.20;2.20;;;18.30;1.00;;;;;;4960065;28;20247;-83
2023/07/28 00:03:52;;;;;;;5.83;2.40;;;18.20;1.00;;;;;;4960206;28;20209;-83
2023/07/28 00:06:18;;;;;;;3.53;2.37;;;18.30;1.00;;;;;;4959534;28;20423;-84
2023/07/28 00:08:43;;;;;;;5.13;2.87;;;18.30;1.00;;;;;;4958669;28;20223;-85
2023/07/28 00:11:12;;;;;;;4.20;2.80;;;18.30;1.00;;;;;;4959223;28;20252;-82
2023/07/28 00:13:37;;;;;;;3.13;2.47;;;18.30;1.00;;;;;;4958813;28;20259;-83
2023/07/28 00:16:03;;;;;;;3.97;2.80;;;18.30;1.00;;;;;;4965757;28;20458;-83
2023/07/28 00:18:29;;;;;;;3.43;2.77;;;18.30;1.00;;;;;;4979268;28;20459;-83
2023/07/28 00:20:54;;;;;;;4.10;2.83;;;18.30;1.00;;;;;;4977807;28;20188;-84
2023/07/28 00:23:20;;;;;;;4.57;2.77;;;18.30;1.00;;;;;;4978577;28;20184;-84
2023/07/28 00:25:45;;;;;;;3.57;2.60;;;18.30;1.00;;;;;;4978085;28;20186;-83
2023/07/28 00:28:11;;;;;;;3.93;2.40;;;18.30;1.00;;;;;;4977839;28;20204;-83
2023/07/28 00:30:36;;;;;;;3.27;2.60;;;18.30;1.00;;;;;;4978005;28;20192;-84
2023/07/28 00:33:02;;;;;;;5.60;2.93;;;18.30;1.00;;;;;;4977736;28;20657;-82
2023/07/28 00:35:27;;;;;;;2.70;2.20;;;18.20;1.00;;;;;;4977360;28;20188;-82
2023/07/28 00:37:53;;;;;;;4.37;2.83;;;18.30;1.00;;;;;;4978739;28;20219;-84
2023/07/28 00:40:18;;;;;;;3.13;2.70;;;18.30;1.00;;;;;;4977105;28;20272;-84
2023/07/28 00:42:45;;;;;;;7.83;3.07;;;18.30;1.00;;;;;;4979113;28;20266;-84
2023/07/28 00:45:10;;;;;;;4.93;2.90;;;18.20;1.00;;;;;;4977606;28;20186;-83
2023/07/28 00:47:36;;;;;;;3.50;2.87;;;18.20;1.00;;;;;;4963264;28;20590;-84
2023/07/28 00:50:03;;;;;;;4.70;2.70;;;18.30;1.00;;;;;;4958430;28;20224;-83
2023/07/28 00:52:28;;;;;;;4.10;3.70;;;18.20;1.00;;;;;;4959375;28;20481;-83
2023/07/28 00:54:54;;;;;;;7.13;3.30;;;18.30;1.00;;;;;;4958413;28;20431;-84
2023/07/28 00:57:19;;;;;;;3.50;3.17;;;18.30;1.00;;;;;;4958232;28;20219;-83
2023/07/28 00:59:46;;;;;;;4.63;2.83;;;18.30;1.00;;;;;;4959777;28;20273;-84
2023/07/28 01:02:12;;;;;;;4.03;3.03;;;18.20;1.00;;;;;;4957434;28;20181;-82
2023/07/28 01:04:38;;;;;;;4.10;3.70;;;18.20;1.00;;;;;;4958617;28;20428;-83
2023/07/28 01:07:07;;;;;;;4.70;3.37;;;18.20;1.00;;;;;;4960297;28;20493;-83
2023/07/28 01:09:46;;;;;;;5.53;3.40;;;18.20;1.00;;;;;;4977097;28;20188;-84
2023/07/28 01:12:12;;;;;;;6.30;4.03;;;18.20;1.00;;;;;;4969184;28;20436;-85
2023/07/28 01:14:37;;;;;;;5.57;3.63;;;18.10;1.00;;;;;;4977454;28;20466;-83
2023/07/28 01:17:03;;;;;;;4.10;3.53;;;18.10;1.00;;;;;;4968864;28;20815;-84
2023/07/28 01:19:29;;;;;;;4.67;3.80;;;18.10;1.00;;;;;;4967175;28;20711;-84
2023/07/28 01:22:19;;;;;;;4.93;3.93;;;18.10;1.00;;;;;;4966564;28;20506;-84
2023/07/28 01:25:23;;;;;;;7.13;4.27;;;18.10;1.00;;;;;;4971914;28;20181;-81
2023/07/28 01:27:51;;;;;;;4.80;4.07;;;18.10;2.70;;;;;;4969332;28;20484;-82
2023/07/28 01:30:16;;;;;;;5.47;3.80;;;18.10;6.60;;;;;;4977292;28;20434;-82
2023/07/28 01:32:42;;;;;;;4.93;4.27;;;18.10;9.70;;;;;;4981809;28;20420;-85
2023/07/28 01:35:08;;;;;;;5.63;4.53;;;18.10;10.10;;;;;;4979608;28;20222;-82
2023/07/28 01:37:33;;;;;;;4.93;4.43;;;18.10;10.30;;;;;;4977710;28;20239;-84
2023/07/28 01:39:59;;;;;;;5.90;4.83;;;18.10;10.50;;;;;;4977611;28;20453;-83
2023/07/28 01:42:24;;;;;;;4.47;4.00;;;18.10;11.00;;;;;;4976966;28;20678;-84
2023/07/28 01:44:50;;;;;;;8.10;4.17;;;18.10;11.20;;;;;;4976974;28;20195;-83
2023/07/28 01:47:16;;;;;;;8.07;4.83;;;18.10;10.20;;;;;;4959812;28;20211;-83
2023/07/28 01:49:41;;;;;;;8.27;4.93;;;18.20;9.50;;;;;;4957978;28;20201;-84
2023/07/28 01:52:07;;;;;;;6.37;5.33;;;18.10;10.40;;;;;;4973379;28;20270;-85
2023/07/28 01:54:32;;;;;;;7.93;5.20;;;18.10;11.90;;;;;;4976862;28;20215;-83
2023/07/28 01:56:58;;;;;;;6.60;5.73;;;18.10;12.50;;;;;;4976999;28;20219;-84
2023/07/28 01:59:23;;;;;;;6.60;5.67;;;18.10;14.60;;;;;;4977130;28;20255;-83
2023/07/28 02:01:49;;;;;;;9.30;5.90;;;18.10;17.00;;;;;;4976946;28;20576;-86
2023/07/28 02:04:15;;;;;;;6.97;5.53;;;18.10;18.50;;;;;;4975146;28;20248;-83
2023/07/28 02:06:41;;;;;;;7.50;6.20;;;18.10;19.30;;;;;;4971270;28;20177;-83
2023/07/28 02:09:07;;;;;;;7.60;5.90;;;18.10;19.20;;;;;;4977209;28;20503;-84
2023/07/28 02:11:32;;;;;;;9.40;6.37;;;18.10;20.20;;;;;;4977083;28;20176;-84
2023/07/28 02:13:58;;;;;;;14.30;7.00;;;18.10;20.30;;;;;;4977591;28;20179;-84
2023/07/28 02:16:24;;;;;;;8.93;6.10;;;18.10;20.90;;;;;;4978084;28;20194;-83
2023/07/28 02:18:49;;;;;;;8.30;6.40;;;18.10;23.30;;;;;;4976849;28;20239;-83
2023/07/28 02:21:15;;;;;;;5.90;4.63;;;18.10;24.80;;;;;;4978020;28;20438;-84
2023/07/28 02:23:41;;;;;;;5.93;5.27;;;18.10;25.30;;;;;;4978211;28;20180;-84
2023/07/28 02:26:06;;;;;;;7.60;5.60;;;18.10;25.90;;;;;;4977704;28;20182;-85
2023/07/28 02:28:32;;;;;;;6.23;5.00;;;18.10;25.30;;;;;;4977569;28;20496;-83
2023/07/28 02:30:57;;;;;;;7.57;5.30;;;18.10;23.80;;;;;;4977532;28;20749;-84
2023/07/28 02:33:23;;;;;;;7.60;5.17;;;18.10;25.40;;;;;;4978152;28;20183;-83
2023/07/28 02:35:48;;;;;;;5.27;4.77;;;18.10;27.40;;;;;;4976712;28;20205;-84
2023/07/28 02:38:14;;;;;;;8.67;5.03;;;18.10;26.60;;;;;;4967395;28;20223;-83
2023/07/28 02:40:39;;;;;;;6.43;5.13;;;18.10;28.20;;;;;;4956980;29;20191;-84
2023/07/28 02:43:05;;;;;;;5.60;4.90;;;18.10;28.00;;;;;;4957586;29;20187;-81
2023/07/28 02:45:30;;;;;;;5.23;4.73;;;18.10;27.30;;;;;;4956895;29;20678;-83
2023/07/28 02:47:56;;;;;;;6.03;4.47;;;18.10;28.50;;;;;;4956994;29;20339;-84
2023/07/28 02:50:23;;;;;;;4.30;3.67;;;18.10;27.30;;;;;;4958386;28;20187;-83
2023/07/28 02:52:48;;;;;;;4.73;4.23;;;18.10;27.40;;;;;;4958207;28;20189;-84
2023/07/28 02:55:14;;;;;;;4.50;4.10;;;18.10;28.70;;;;;;4956471;29;20438;-86
2023/07/28 02:57:39;;;;;;;4.70;3.90;;;18.10;29.20;;;;;;4956405;28;20216;-84
2023/07/28 03:00:07;;;;;;;7.77;4.77;;;18.10;28.70;;;;;;4956912;29;20226;-84
2023/07/28 03:02:33;;;;;;;5.33;4.10;;;18.20;29.50;;;;;;4957352;28;20177;-84
2023/07/28 03:04:58;;;;;;;6.90;4.20;;;18.10;30.00;;;;;;4960648;29;20428;-84
2023/07/28 03:07:24;;;;;;;6.60;4.43;;;18.10;30.00;;;;;;4970551;28;20233;-83
2023/07/28 03:09:49;;;;;;;4.03;3.63;;;18.20;30.30;;;;;;4979313;28;20198;-84
2023/07/28 03:12:14;;;;;;;4.70;3.60;;;18.10;31.30;;;;;;4980334;28;20188;-84
2023/07/28 03:14:40;;;;;;;5.93;3.80;;;18.10;31.10;;;;;;4980751;28;20601;-84
2023/07/28 03:17:06;;;;;;;8.40;3.97;;;18.10;33.40;;;;;;4980874;28;20234;-84
2023/07/28 03:19:31;;;;;;;6.20;4.90;;;18.10;35.00;;;;;;4996394;28;20182;-84
2023/07/28 03:21:57;;;;;;;3.93;3.53;;;18.20;34.20;;;;;;4981475;28;20680;-83
2023/07/28 03:24:22;;;;;;;4.90;4.07;;;18.20;35.80;;;;;;4979747;28;20187;-83
2023/07/28 03:26:48;;;;;;;4.80;3.40;;;18.20;36.80;;;;;;4980247;28;20219;-84
2023/07/28 03:29:14;;;;;;;4.00;3.27;;;18.20;38.20;;;;;;4980783;28;20190;-84
2023/07/28 03:31:39;;;;;;;4.23;3.43;;;18.10;38.90;;;;;;4980008;28;20205;-85
2023/07/28 03:34:05;;;;;;;5.27;3.90;;;18.20;38.00;;;;;;4980332;28;20254;-85
2023/07/28 03:36:30;;;;;;;5.80;3.97;;;18.20;38.30;;;;;;4975962;28;20192;-85
2023/07/28 03:38:56;;;;;;;4.87;3.40;;;18.20;38.20;;;;;;4960067;28;20224;-84
2023/07/28 03:41:21;;;;;;;5.30;3.70;;;18.20;38.70;;;;;;4976754;28;20186;-84
2023/07/28 03:43:47;;;;;;;4.17;3.40;;;18.20;39.00;;;;;;4960184;28;20183;-84
2023/07/28 03:46:12;;;;;;;4.50;3.10;;;18.20;40.10;;;;;;4960343;28;20176;-83
2023/07/28 03:48:38;;;;;;;5.27;4.13;;;18.20;39.90;;;;;;4959964;28;20201;-84
2023/07/28 03:51:04;;;;;;;4.73;3.80;;;18.20;39.00;;;;;;4960685;28;20635;-85
2023/07/28 03:53:29;;;;;;;3.87;3.47;;;18.20;39.70;;;;;;4959528;28;20216;-85
2023/07/28 03:55:57;;;;;;;4.03;3.47;;;18.20;39.80;;;;;;4959910;28;20198;-83
2023/07/28 03:58:26;;;;;;;4.60;3.80;;;18.20;40.20;;;;;;4960648;28;20212;-84
2023/07/28 04:00:53;;;;;;;5.00;2.97;;;18.20;39.30;;;;;;4959977;28;20435;-82
2023/07/28 04:03:19;;;;;;;3.77;3.13;;;18.20;41.20;;;;;;4961108;28;20422;-83
2023/07/28 04:05:44;;;;;;;5.53;3.20;;;18.20;41.60;;;;;;4960368;28;20416;-83
2023/07/28 04:08:10;;;;;;;3.37;3.00;;;18.20;39.80;;;;;;4976955;28;20277;-84
2023/07/28 04:10:35;;;;;;;3.20;2.73;;;18.20;39.80;;;;;;4961594;28;20242;-84
2023/07/28 04:13:01;;;;;;;3.20;2.60;;;18.20;40.30;;;;;;4960063;28;20210;-84
2023/07/28 04:15:26;;;;;;;4.83;3.00;;;18.20;39.70;;;;;;4959649;28;20189;-84
2023/07/28 04:17:52;;;;;;;3.90;3.40;;;18.30;39.80;;;;;;4958949;28;20353;-84
2023/07/28 04:20:18;;;;;;;5.40;3.10;;;18.30;38.50;;;;;;4959804;28;20839;-84
2023/07/28 04:22:43;;;;;;;3.93;3.07;;;18.30;38.50;;;;;;4959110;28;20425;-84
2023/07/28 04:25:09;;;;;;;4.10;2.83;;;18.30;37.80;;;;;;4960526;28;20193;-83
2023/07/28 04:27:34;;;;;;;6.87;3.30;;;18.30;36.00;;;;;;4958523;28;20197;-85
2023/07/28 04:30:00;;;;;;;7.03;2.93;;;18.40;32.40;;;;;;4957118;28;20272;-82
2023/07/28 04:32:26;;;;;;;4.60;2.40;;;18.40;31.10;;;;;;4959846;28;20265;-84
2023/07/28 04:34:51;;;;;;;3.30;2.53;;;18.40;31.20;;;;;;4960148;28;20439;-84
2023/07/28 04:37:17;;;;;;;3.43;2.60;;;18.40;29.00;;;;;;4970665;28;20224;-84
2023/07/28 04:39:43;;;;;;;3.50;3.20;;;18.40;28.90;;;;;;4969094;28;20200;-84
2023/07/28 04:42:09;;;;;;;3.77;3.00;;;18.50;28.90;;;;;;4961289;28;20220;-84
2023/07/28 04:44:35;;;;;;;3.00;2.57;;;18.50;27.10;;;;;;4960223;28;20210;-84
2023/07/28 04:47:00;;;;;;;3.20;2.43;;;18.50;24.90;;;;;;4960650;28;20443;-84
2023/07/28 04:49:26;;;;;;;4.30;2.40;;;18.50;23.30;;;;;;4961738;28;20431;-84
2023/07/28 04:51:51;;;;;;;2.83;2.50;;;18.60;22.50;;;;;;4960710;28;20193;-83
2023/07/28 04:54:17;;;;;;;4.33;2.47;;;18.60;23.00;;;;;;4959244;28;20195;-82
2023/07/28 04:56:42;;;;;;;3.53;2.77;;;18.60;22.70;;;;;;4960790;28;20186;-84
2023/07/28 04:59:08;;;;;;;3.43;2.90;;;18.60;22.60;;;;;;4960648;28;20188;-84
2023/07/28 05:01:33;;;;;;;3.87;3.23;;;18.60;21.90;;;;;;4959561;28;20196;-83
2023/07/28 05:03:59;;;;;;;3.47;2.67;;;18.60;22.70;;;;;;4960666;28;20188;-85
2023/07/28 05:06:24;;;;;;;4.33;3.30;;;18.60;21.20;;;;;;4962092;28;20199;-84
2023/07/28 05:08:50;;;;;;;4.07;3.53;;;18.60;21.10;;;;;;4974046;28;20217;-84
2023/07/28 05:11:15;;;;;;;4.40;3.20;;;18.60;21.70;;;;;;4961443;28;20229;-84
2023/07/28 05:13:41;;;;;;;4.50;3.27;;;18.60;21.00;;;;;;4960402;29;20191;-86
2023/07/28 05:16:06;;;;;;;4.47;3.67;;;18.60;20.80;;;;;;4958900;29;20186;-84
2023/07/28 05:18:32;;;;;;;5.30;3.30;;;18.60;23.50;;;;;;4959697;28;20207;-83
2023/07/28 05:20:57;;;;;;;3.37;3.00;;;18.60;22.80;;;;;;4959508;28;20188;-84
2023/07/28 05:23:23;;;;;;;4.00;3.13;;;18.70;22.80;;;;;;4960310;28;20185;-83
2023/07/28 05:25:48;;;;;;;5.97;4.07;;;18.70;22.00;;;;;;4958580;28;20191;-84
2023/07/28 05:28:14;;;;;;;5.80;3.73;;;18.70;20.90;;;;;;4958505;28;20207;-84
2023/07/28 05:30:39;;;;;;;4.20;3.30;;;18.70;19.70;;;;;;4959073;29;20241;-83
2023/07/28 05:33:05;;;;;;;5.77;3.37;;;18.80;19.10;;;;;;4958627;28;20186;-84
2023/07/28 05:35:30;;;;;;;5.93;3.70;;;18.80;18.60;;;;;;4960033;28;20172;-83
2023/07/28 05:37:56;;;;;;;5.80;3.20;;;18.80;16.80;;;;;;4960641;28;20204;-85
2023/07/28 05:40:21;;;;;;;6.03;4.50;;;18.80;17.60;;;;;;4973480;28;20180;-84
2023/07/28 05:42:47;;;;;;;6.70;4.73;;;18.80;16.80;;;;;;4977483;28;20720;-85
2023/07/28 05:45:13;;;;;;;6.07;3.80;;;18.80;15.80;;;;;;4977729;28;20241;-84
2023/07/28 05:47:38;;;;;;;6.70;3.90;;;18.80;13.10;;;;;;4978062;28;20706;-83
2023/07/28 05:50:05;;;;;;;12.53;4.30;;;18.80;15.50;;;;;;4978024;28;20178;-83
2023/07/28 05:52:30;;;;;;;6.03;4.30;;;18.80;14.10;;;;;;4977370;28;20190;-84
2023/07/28 05:54:56;;;;;;;6.20;4.47;;;18.90;14.30;;;;;;4977685;28;21115;-83
2023/07/28 05:57:21;;;;;;;7.33;4.50;;;18.90;13.30;;;;;;4978150;28;20206;-84
2023/07/28 05:59:47;;;;;;;6.27;4.80;;;18.90;11.90;;;;;;4977108;28;20238;-84
2023/07/28 06:02:12;;;;;;;6.63;4.53;;;18.90;12.20;;;;;;4977670;28;20668;-84
2023/07/28 06:04:38;;;;;;;6.43;4.80;;;18.90;10.90;;;;;;4977426;28;20258;-84
2023/07/28 06:07:04;;;;;;;6.90;4.80;;;19.00;8.20;;;;;;4977506;28;20218;-84
2023/07/28 06:09:29;;;;;;;8.97;5.03;;;19.00;7.40;;;;;;4978265;28;20180;-82
2023/07/28 06:11:55;;;;;;;9.60;4.90;;;19.00;6.90;;;;;;4979395;28;20191;-84
2023/07/28 06:14:20;;;;;;;7.20;4.73;;;19.00;3.20;;;;;;4979481;28;20180;-84
2023/07/28 06:16:46;;;;;;;7.73;4.80;;;19.00;1.70;;;;;;4977062;28;20278;-83
2023/07/28 06:19:11;;;;;;;7.50;5.30;;;19.00;1.00;;;;;;4977956;28;20705;-84
2023/07/28 06:21:37;;;;;;;10.70;6.13;;;19.10;1.00;;;;;;4979056;28;20795;-84
2023/07/28 06:24:02;;;;;;;7.43;6.27;;;19.10;1.00;;;;;;4978458;28;20278;-84
2023/07/28 06:26:28;;;;;;;9.53;6.43;;;19.10;1.00;;;;;;4978706;28;20189;-81
2023/07/28 06:28:53;;;;;;;12.57;6.70;;;19.20;1.00;;;;;;4977187;28;20219;-84
2023/07/28 06:31:19;;;;;;;10.30;6.47;;;19.20;1.00;;;;;;4977586;28;20211;-84
2023/07/28 06:33:44;;;;;;;9.93;6.30;;;19.20;1.00;;;;;;4977329;28;20207;-83
2023/07/28 06:36:10;;;;;;;12.07;8.00;;;19.20;1.00;;;;;;4981195;28;20181;-84
2023/07/28 06:38:35;;;;;;;7.83;6.50;;;19.30;1.00;;;;;;4974052;28;20210;-84
2023/07/28 06:41:01;;;;;;;10.67;6.43;;;19.30;1.00;;;;;;4980385;28;20187;-83
2023/07/28 06:43:27;;;;;;;9.70;6.83;;;19.30;1.00;;;;;;4982023;28;20183;-83
2023/07/28 06:45:53;;;;;;;9.83;6.80;;;19.30;1.00;;;;;;4980477;28;20425;-84
2023/07/28 06:48:19;;;;;;;11.23;7.40;;;19.30;1.00;;;;;;4980287;28;20234;-84
2023/07/28 06:50:45;;;;;;;8.67;7.20;;;19.30;1.00;;;;;;4980380;28;21003;-84
2023/07/28 06:53:10;;;;;;;11.67;6.33;;;19.30;1.00;;;;;;4979502;28;20184;-84
2023/07/28 06:55:38;;;;;;;11.20;6.73;;;19.40;1.00;;;;;;4981045;28;20196;-83
2023/07/28 06:58:04;;;;;;;8.07;6.57;;;19.40;1.00;;;;;;4981415;28;20207;-85
2023/07/28 07:00:30;;;;;;;9.90;7.07;;;19.40;1.00;;;;;;4980280;28;20437;-83
2023/07/28 07:02:55;;;;;;;12.50;7.03;;;19.40;1.00;;;;;;4980698;28;20425;-83
2023/07/28 07:05:21;;;;;;;11.63;7.27;;;19.40;1.00;;;;;;4981042;28;20184;-84
2023/07/28 07:07:46;;;;;;;8.40;6.70;;;19.50;1.00;;;;;;4968803;28;20316;-84
2023/07/28 07:10:12;;;;;;;7.13;6.43;;;19.60;1.00;;;;;;4961383;28;20671;-84
2023/07/28 07:12:38;;;;;;;11.00;6.40;;;19.70;1.00;;;;;;4961664;28;20194;-84
2023/07/28 07:15:04;;;;;;;8.50;6.23;;;19.80;1.00;;;;;;4961652;28;20199;-83
2023/07/28 07:17:30;;;;;;;10.37;5.47;;;19.80;1.00;;;;;;4960402;28;20715;-84
2023/07/28 07:19:55;;;;;;;6.77;5.07;;;19.90;1.00;;;;;;4960946;28;20443;-84
2023/07/28 07:22:21;;;;;;;7.67;5.43;;;19.90;1.00;;;;;;4962238;28;20239;-84
2023/07/28 07:24:46;;;;;;;5.80;5.30;;;19.90;1.00;;;;;;4962291;28;20181;-83
2023/07/28 07:27:12;;;;;;;5.73;4.77;;;20.00;1.00;;;;;;4960747;28;20231;-87
2023/07/28 07:29:40;;;;;;;6.87;5.10;;;20.10;1.00;;;;;;4959303;28;20286;-83
2023/07/28 07:32:07;;;;;;;5.30;4.40;;;20.10;1.00;;;;;;4962316;28;20207;-85
2023/07/28 07:34:34;;;;;;;6.50;4.63;;;20.10;1.00;;;;;;4962055;28;20512;-84
2023/07/28 07:36:59;;;;;;;7.23;4.60;;;20.20;1.00;;;;;;4969037;28;20451;-84
2023/07/28 07:39:25;;;;;;;6.10;4.13;;;20.20;1.00;;;;;;4973424;28;20433;-84
2023/07/28 07:41:51;;;;;;;4.60;4.20;;;20.20;1.00;;;;;;4960047;29;20536;-83
2023/07/28 07:44:16;;;;;;;6.13;4.50;;;20.30;1.00;;;;;;4960803;28;20196;-84
2023/07/28 07:46:41;;;;;;;6.83;4.50;;;20.30;1.00;;;;;;4961121;28;20182;-83
2023/07/28 07:49:07;;;;;;;7.80;4.53;;;20.50;1.00;;;;;;4959589;28;20177;-84
2023/07/28 07:51:34;;;;;;;5.20;4.57;;;20.70;1.00;;;;;;4960741;29;20589;-85
2023/07/28 07:54:01;;;;;;;5.93;4.83;;;20.80;1.00;;;;;;4961230;28;20425;-85
2023/07/28 07:56:27;;;;;;;4.80;4.23;;;20.80;99.90;;;;;;4960245;28;20430;-83
2023/07/28 07:58:52;;;;;;;4.67;4.20;;;20.90;99.90;;;;;;4961001;28;20487;-84
2023/07/28 08:01:18;;;;;;;6.60;4.87;;;21.00;99.90;;;;;;4962557;28;20427;-85
2023/07/28 08:03:43;;;;;;;5.17;4.47;;;21.00;99.90;;;;;;4962526;28;20643;-85
2023/07/28 08:06:11;;;;;;;4.43;4.00;;;21.10;99.90;;;;;;4960711;28;20214;-86
2023/07/28 08:08:36;;;;;;;7.60;3.70;;;21.20;99.90;;;;;;4963490;28;20655;-84
2023/07/28 08:11:02;;;;;;;5.63;3.77;;;21.30;99.90;;;;;;4961323;28;20445;-83
2023/07/28 08:13:28;;;;;;;4.17;3.57;;;21.50;63.80;;;;;;4960927;28;20257;-84
2023/07/28 08:15:54;;;;;;;5.87;3.77;;;21.80;1.00;;;;;;4960797;28;20788;-84
2023/07/28 08:18:19;;;;;;;3.50;3.20;;;22.10;99.90;;;;;;4961107;28;20566;-84
2023/07/28 08:20:45;;;;;;;3.43;3.13;;;22.40;90.60;;;;;;4962085;29;20187;-84
2023/07/28 08:23:11;;;;;;;7.20;3.20;;;22.50;99.90;;;;;;4961882;28;20210;-84
2023/07/28 08:25:36;;;;;;;6.90;3.30;;;22.50;64.30;;;;;;4960920;28;20570;-86
2023/07/28 08:28:02;;;;;;;5.53;4.10;;;22.50;1.00;;;;;;4962025;28;20260;-84
2023/07/28 08:30:28;;;;;;;3.33;3.07;;;22.60;1.00;;;;;;4961239;29;20651;-85
2023/07/28 08:32:53;;;;;;;4.83;3.53;;;22.50;9.50;;;;;;4961151;28;20662;-84
2023/07/28 08:35:19;;;;;;;3.43;2.93;;;22.80;99.90;;;;;;4962416;28;20174;-85
2023/07/28 08:37:44;;;;;;;5.83;3.17;;;22.90;99.90;;;;;;4973077;28;20205;-84
2023/07/28 08:40:11;;;;;;;4.07;3.00;;;23.20;1.00;;;;;;4972678;28;20195;-84
2023/07/28 08:42:39;;;;;;;3.77;3.13;;;23.90;99.90;;;;;;4978753;28;20264;-84
2023/07/28 08:45:06;;;;;;;5.43;3.20;;;25.30;99.90;;;;;;4980087;28;20813;-84
2023/07/28 08:47:32;;;;;;;3.77;2.63;;;27.20;50.40;;;;;;4980308;28;20443;-86
2023/07/28 08:49:58;;;;;;;3.50;2.80;;;28.00;1.00;;;;;;4980689;28;20424;-85
2023/07/28 08:52:26;;;;;;;12.80;3.83;;;27.60;99.90;;;;;;4979704;28;20463;-84
2023/07/28 08:54:52;;;;;;;6.40;2.70;;;27.00;99.90;;;;;;4979849;28;20191;-84
2023/07/28 08:57:19;;;;;;;4.00;2.83;;;26.20;99.90;;;;;;4978182;28;20476;-84
2023/07/28 08:59:47;;;;;;;3.83;2.50;;;25.70;1.00;;;;;;4979669;28;20173;-85
2023/07/28 09:02:15;;;;;;;4.90;2.67;;;25.50;1.00;;;;;;4980756;28;20439;-85
2023/07/28 09:04:45;;;;;;;2.70;2.10;;;25.90;1.00;;;;;;4981739;28;20424;-86
2023/07/28 09:07:10;;;;;;;2.33;1.90;;;27.20;1.00;;;;;;4972867;28;20832;-86
2023/07/28 09:09:36;;;;;;;5.20;1.70;;;27.80;99.90;;;;;;4969731;28;20474;-85
2023/07/28 09:12:03;;;;;;;2.53;1.67;;;27.80;99.90;;;;;;4981338;28;20199;-84
2023/07/28 09:14:29;;;;;;;3.03;1.90;;;28.20;99.90;;;;;;4982182;28;20761;-84
2023/07/28 09:16:55;;;;;;;2.50;1.30;;;28.40;1.00;;;;;;4982372;28;20447;-87
2023/07/28 09:19:21;;;;;;;2.70;1.50;;;28.50;1.00;;;;;;4982819;28;20929;-84
2023/07/28 09:21:59;;;;;;;1.93;1.73;;;28.00;1.00;;;;;;4981616;28;20212;-88
2023/07/28 09:24:31;;;;;;;3.77;2.27;;;27.40;1.00;;;;;;4981306;28;20485;-84
2023/07/28 09:26:58;;;;;;;2.17;1.97;;;26.70;1.00;;;;;;4980974;28;20510;-86
2023/07/28 09:29:25;;;;;;;4.13;2.10;;;26.20;1.00;;;;;;4981907;28;20408;-85
2023/07/28 09:31:52;;;;;;;2.80;2.03;;;25.80;1.00;;;;;;4980427;28;20439;-84
2023/07/28 09:34:28;;;;;;;2.40;1.90;;;25.60;30.00;;;;;;4980870;28;20451;-85
2023/07/28 09:36:58;;;;;;;2.10;1.83;;;25.90;99.90;;;;;;4979537;28;20980;-84
2023/07/28 09:39:25;;;;;;;1.80;1.50;;;27.00;28.10;;;;;;4962368;28;20449;-85
2023/07/28 09:41:51;;;;;;;4.37;1.67;;;27.80;1.00;;;;;;4961754;28;20866;-85
2023/07/28 09:44:17;;;;;;;1.60;1.50;;;27.80;1.00;;;;;;4962285;29;20452;-85
2023/07/28 09:46:50;;;;;;;1.50;1.40;;;27.60;1.00;;;;;;4961697;28;20440;-85
2023/07/28 09:49:19;;;;;;;1.50;1.30;;;27.60;1.00;;;;;;4963687;28;20181;-85
2023/07/28 09:51:51;;;;;;;2.43;1.93;;;27.30;1.00;;;;;;4962576;28;20421;-84
2023/07/28 09:54:27;;;;;;;4.80;1.67;;;26.80;1.00;;;;;;4961913;29;20933;-86
2023/07/28 09:56:56;;;;;;;1.90;1.63;;;26.60;1.00;;;;;;4961192;29;20441;-84
2023/07/28 09:59:37;;;;;;;2.20;2.00;;;26.30;1.00;;;;;;4961602;28;20424;-84
2023/07/28 10:02:03;;;;;;;2.47;2.20;;;26.10;1.00;;;;;;4961196;29;20416;-85
2023/07/28 10:04:30;;;;;;;3.30;1.80;;;25.60;16.60;;;;;;4961550;28;20417;-85
2023/07/28 10:06:56;;;;;;;3.27;2.00;;;25.40;99.90;;;;;;4968683;28;20502;-84
2023/07/28 10:09:24;;;;;;;3.10;2.20;;;25.50;99.90;;;;;;4991951;28;20420;-86
2023/07/28 10:11:50;;;;;;;4.10;2.10;;;25.70;99.90;;;;;;5061982;28;20174;-86
2023/07/28 10:14:27;;;;;;;4.90;2.00;;;25.80;99.90;;;;;;5062615;28;20431;-86
2023/07/28 10:16:53;;;;;;;1.50;1.40;;;26.10;99.90;;;;;;5061257;28;20197;-85
2023/07/28 10:19:24;;;;;;;3.10;1.73;;;26.90;81.20;;;;;;5063742;28;20409;-84
2023/07/28 10:21:58;;;;;;;5.00;1.23;;;28.50;1.00;;;;;;5060300;28;20408;-84
2023/07/28 10:24:54;;;;;;;2.47;1.20;;;30.80;1.00;;;;;;5057990;28;20419;-82
2023/07/28 10:27:35;;;;;;;1.70;0.87;;;34.20;1.00;;;;;;5055980;28;20896;-83
2023/07/28 10:30:13;;;;;;;1.77;1.30;;;34.80;99.90;;;;;;5057358;28;20483;-82
2023/07/28 10:32:48;;;;;;;1.60;1.50;;;33.60;99.90;;;;;;5061104;28;20410;-82
2023/07/28 10:35:17;;;;;;;1.87;1.47;;;32.00;99.90;;;;;;5060759;28;20412;-83
2023/07/28 10:37:46;;;;;;;1.77;1.63;;;30.70;1.00;;;;;;4998298;28;20432;-83
2023/07/28 10:40:28;;;;;;;2.33;1.87;;;29.70;1.00;;;;;;4968749;28;20413;-86
2023/07/28 10:42:54;;;;;;;1.70;1.60;;;28.80;1.00;;;;;;4961826;28;20419;-86
2023/07/28 10:45:22;;;;;;;3.33;2.10;;;28.20;1.00;;;;;;4961307;28;20409;-83
2023/07/28 10:47:48;;;;;;;2.10;1.77;;;28.10;1.00;;;;;;4959672;29;20476;-85
2023/07/28 10:50:15;;;;;;;3.70;2.17;;;28.60;1.00;;;;;;4961720;28;20409;-84
2023/07/28 10:52:41;;;;;;;1.50;1.40;;;30.70;1.00;;;;;;4958383;28;20440;-82
2023/07/28 10:55:14;;;;;;;2.57;1.83;;;31.70;1.00;;;;;;4958902;29;20428;-82
2023/07/28 10:57:42;;;;;;;2.13;1.13;;;33.00;1.00;;;;;;4957956;29;20440;-82
2023/07/28 11:00:08;;;;;;;2.20;1.20;;;34.10;1.00;;;;;;4957875;28;20448;-82
2023/07/28 11:02:37;;;;;;;2.10;1.20;;;33.60;1.00;;;;;;4956807;29;20850;-82
2023/07/28 11:05:07;;;;;;;1.60;1.00;;;33.80;1.00;;;;;;4958563;28;20419;-82
2023/07/28 11:07:32;;;;;;;1.60;1.10;;;33.40;1.00;;;;;;4968787;28;20509;-84
2023/07/28 11:10:01;;;;;;;3.30;1.37;;;33.00;1.00;;;;;;4978798;28;20431;-80
2023/07/28 11:12:27;;;;;;;1.53;1.43;;;32.30;1.00;;;;;;4979831;28;20200;-83
2023/07/28 11:14:52;;;;;;;3.90;1.60;;;31.50;1.00;;;;;;4978522;28;20439;-82
2023/07/28 11:17:18;;;;;;;2.00;1.33;;;30.60;1.00;;;;;;4980273;28;20232;-83
2023/07/28 11:19:43;;;;;;;3.00;1.73;;;29.60;1.00;;;;;;4980219;28;20219;-83
2023/07/28 11:22:09;;;;;;;1.70;1.47;;;28.60;1.00;;;;;;4979941;28;20646;-83
2023/07/28 11:24:34;;;;;;;2.23;1.77;;;27.80;1.00;;;;;;4997020;28;20180;-83
2023/07/28 11:27:02;;;;;;;5.30;1.93;;;27.20;1.00;;;;;;4981727;28;20189;-83
2023/07/28 11:29:28;;;;;;;2.20;1.60;;;26.60;1.00;;;;;;4983417;28;20205;-85
2023/07/28 11:31:54;;;;;;;5.33;1.53;;;26.10;1.00;;;;;;4983562;28;20431;-86
2023/07/28 11:34:19;;;;;;;2.23;1.53;;;25.90;1.00;;;;;;5000010;28;20553;-85
2023/07/28 11:36:45;;;;;;;1.97;1.57;;;25.70;1.00;;;;;;4976788;28;20204;-85
2023/07/28 11:39:12;;;;;;;1.63;1.17;;;25.90;30.60;;;;;;4981051;28;20184;-85
2023/07/28 11:41:39;;;;;;;3.80;1.70;;;26.30;1.00;;;;;;4983220;28;20183;-84
2023/07/28 11:44:06;;;;;;;2.93;1.50;;;26.40;1.00;;;;;;4982982;28;20554;-85
2023/07/28 11:46:39;;;;;;;3.70;1.57;;;26.20;1.00;;;;;;4980878;28;20446;-85
2023/07/28 11:49:13;;;;;;;3.40;1.50;;;26.10;1.00;;;;;;4982647;28;20463;-84
2023/07/28 11:51:44;;;;;;;2.50;1.70;;;26.10;39.80;;;;;;4983105;28;20507;-85
2023/07/28 11:54:14;;;;;;;2.47;1.50;;;26.40;54.90;;;;;;4982309;28;20450;-84
2023/07/28 11:56:44;;;;;;;2.10;1.77;;;27.10;1.90;;;;;;4982470;28;20416;-85
2023/07/28 11:59:11;;;;;;;2.13;1.47;;;27.50;1.00;;;;;;4981172;28;20461;-84
2023/07/28 12:02:09;;;;;;;1.90;1.60;;;27.60;1.00;;;;;;4982619;28;20600;-84
2023/07/28 12:04:39;;;;;;;1.50;1.40;;;27.90;1.00;;;;;;4939964;28;20428;-85
2023/07/28 12:07:19;;;;;;;2.57;1.60;;;27.90;1.00;;;;;;4980618;28;20474;-83
2023/07/28 12:12:18;;;;;;;3.10;1.50;;;27.70;1.00;;;;;;4983479;28;20419;-84
2023/07/28 12:14:46;;;;;;;1.53;1.30;;;27.30;1.00;;;;;;4982071;28;20436;-87
2023/07/28 12:17:15;;;;;;;1.73;1.43;;;27.00;1.00;;;;;;4980957;28;20995;-84
2023/07/28 12:20:10;;;;;;;1.40;1.20;;;26.70;1.00;;;;;;4983712;28;20438;-85
2023/07/28 12:22:38;;;;;;;2.00;1.30;;;26.60;1.00;;;;;;4983017;28;20404;-85
2023/07/28 12:25:04;;;;;;;2.10;1.40;;;26.80;1.00;;;;;;4983389;28;20474;-85
2023/07/28 12:27:30;;;;;;;1.43;1.27;;;27.30;1.00;;;;;;4983894;28;20490;-85
2023/07/28 12:29:56;;;;;;;1.80;1.20;;;27.60;1.00;;;;;;4982782;28;20436;-85
2023/07/28 12:32:21;;;;;;;2.03;1.20;;;27.60;1.00;;;;;;4982492;28;20549;-85
2023/07/28 12:34:48;;;;;;;2.13;1.27;;;27.40;1.00;;;;;;4998050;28;20277;-85
2023/07/28 12:37:14;;;;;;;1.40;1.20;;;27.00;1.00;;;;;;4981651;28;20252;-84
2023/07/28 12:39:40;;;;;;;1.50;1.30;;;26.80;1.00;;;;;;4968407;28;20432;-87
2023/07/28 12:42:09;;;;;;;2.43;1.07;;;27.00;1.00;;;;;;4963234;28;20177;-86
2023/07/28 12:44:35;;;;;;;3.87;1.93;;;27.30;1.00;;;;;;4963527;28;20647;-86
2023/07/28 12:47:01;;;;;;;2.73;1.97;;;27.40;1.00;;;;;;4961457;29;20444;-84
2023/07/28 12:49:29;;;;;;;4.00;2.40;;;27.70;1.00;;;;;;4962677;28;20413;-85
2023/07/28 12:51:58;;;;;;;2.47;1.43;;;28.00;1.00;;;;;;4963145;28;20417;-82
2023/07/28 12:54:24;;;;;;;3.13;1.50;;;28.30;1.00;;;;;;4963082;28;20409;-83